Time;durP1;ratioP1;P1;durP2;ratioP2;P2;SDS_P1;SDS_P2;PMS_P1;PMS_P2;Temp;Humidity;BMP_temperature;BMP_pressure;BME280_temperature;BME280_humidity;BME280_pressure;Samples;Min_cycle;Max_cycle;Signal;HPM_P1;HPM_P2
2023/12/03 00:00:00;;;;;;;9.32;6.45;;;;;;;18.74;31.92;101806.16;5027599;28;20072;-65
2023/12/03 00:02:26;;;;;;;7.97;5.55;;;;;;;18.71;31.76;101798.44;5027545;28;20033;-66
2023/12/03 00:04:53;;;;;;;7.55;5.68;;;;;;;18.70;31.92;101796.75;5027361;28;20033;-66
2023/12/03 00:07:21;;;;;;;8.82;5.63;;;;;;;18.68;31.87;101791.56;5027534;28;20021;-65
2023/12/03 00:09:47;;;;;;;8.32;5.90;;;;;;;18.66;31.91;101790.84;5027491;28;20025;-66
2023/12/03 00:12:12;;;;;;;7.35;5.43;;;;;;;18.65;32.12;101791.78;5026185;28;20041;-66
2023/12/03 00:14:37;;;;;;;8.02;5.68;;;;;;;18.64;31.96;101786.59;5027216;28;20033;-66
2023/12/03 00:17:04;;;;;;;8.20;5.60;;;;;;;18.61;32.08;101787.69;5027405;28;20492;-65
2023/12/03 00:19:29;;;;;;;7.47;5.60;;;;;;;18.60;32.00;101788.63;5026956;28;20037;-63
2023/12/03 00:21:54;;;;;;;8.13;5.55;;;;;;;18.58;31.84;101785.25;5027418;28;20352;-65
2023/12/03 00:24:20;;;;;;;8.05;5.75;;;;;;;18.58;31.87;101789.66;5026855;28;20036;-64
2023/12/03 00:26:45;;;;;;;8.43;5.68;;;;;;;18.57;31.79;101791.47;5027261;28;20029;-61
2023/12/03 00:29:11;;;;;;;8.02;5.50;;;;;;;18.57;31.80;101798.56;5026620;28;20351;-64
2023/12/03 00:31:36;;;;;;;8.02;5.63;;;;;;;18.56;32.06;101795.03;5027096;28;20025;-62
2023/12/03 00:34:02;;;;;;;6.55;5.00;;;;;;;18.53;31.77;101803.19;5027179;28;20483;-64
2023/12/03 00:36:28;;;;;;;7.85;5.38;;;;;;;18.52;32.31;101793.59;5027229;28;20037;-63
2023/12/03 00:38:53;;;;;;;7.88;5.57;;;;;;;18.55;32.03;101803.94;5027263;28;20021;-63
2023/12/03 00:41:18;;;;;;;7.32;5.30;;;;;;;18.55;31.92;101811.00;5026926;28;20085;-65
2023/12/03 00:43:44;;;;;;;7.13;5.05;;;;;;;18.53;32.17;101805.81;5026655;28;20037;-65
2023/12/03 00:46:09;;;;;;;7.85;5.10;;;;;;;18.51;32.08;101801.59;5027295;28;20092;-65
2023/12/03 00:48:34;;;;;;;7.55;4.50;;;;;;;18.52;32.01;101812.06;5026842;28;20033;-65
2023/12/03 00:50:59;;;;;;;7.20;4.80;;;;;;;18.48;31.82;101800.88;5026772;28;20044;-63
2023/12/03 00:53:25;;;;;;;7.68;5.13;;;;;;;18.49;31.85;101807.81;5026858;28;20418;-66
2023/12/03 00:55:50;;;;;;;6.80;4.97;;;;;;;18.48;31.95;101813.22;5024848;28;20048;-66
2023/12/03 00:58:15;;;;;;;7.32;5.18;;;;;;;18.46;32.06;101807.19;5008982;28;20028;-65
2023/12/03 01:00:41;;;;;;;6.87;5.10;;;;;;;18.46;32.04;101815.94;5026819;28;20037;-62
2023/12/03 01:03:06;;;;;;;6.82;5.03;;;;;;;18.45;31.94;101809.00;5026542;28;20364;-65
2023/12/03 01:05:31;;;;;;;8.02;5.53;;;;;;;18.43;31.85;101813.50;5026346;28;20044;-66
2023/12/03 01:07:56;;;;;;;7.70;5.15;;;;;;;18.45;31.80;101818.69;5026430;28;20106;-64
2023/12/03 01:10:22;;;;;;;6.63;4.82;;;;;;;18.43;31.93;101821.44;5026408;28;20030;-64
2023/12/03 01:12:47;;;;;;;6.87;5.00;;;;;;;18.41;31.94;101818.06;5026649;28;20176;-64
2023/12/03 01:15:12;;;;;;;6.68;4.80;;;;;;;18.41;31.86;101825.16;5026647;28;20286;-66
2023/12/03 01:17:40;;;;;;;7.30;5.50;;;;;;;18.38;32.19;101823.53;5026495;28;20570;-65
2023/12/03 01:20:07;;;;;;;8.00;5.70;;;;;;;18.39;31.96;101822.59;5026452;28;20120;-65
2023/12/03 01:22:32;;;;;;;8.77;5.43;;;;;;;18.37;31.84;101826.28;5026608;28;20033;-66
2023/12/03 01:24:57;;;;;;;8.30;5.70;;;;;;;18.35;31.87;101830.81;5026183;28;20036;-65
2023/12/03 01:27:23;;;;;;;8.73;5.70;;;;;;;18.33;31.85;101830.94;5026037;28;20101;-65
2023/12/03 01:29:48;;;;;;;7.45;5.63;;;;;;;18.35;32.02;101831.66;5025863;28;20037;-62
2023/12/03 01:32:13;;;;;;;9.13;5.65;;;;;;;18.32;31.77;101831.88;5026234;28;20061;-65
2023/12/03 01:34:39;;;;;;;7.88;5.63;;;;;;;18.33;31.72;101838.00;5025961;28;20053;-64
2023/12/03 01:37:04;;;;;;;8.13;5.43;;;;;;;18.33;31.78;101836.22;5026475;28;20378;-65
2023/12/03 01:39:29;;;;;;;7.78;5.50;;;;;;;18.32;31.67;101839.78;5026043;28;20025;-63
2023/12/03 01:41:55;;;;;;;8.55;5.15;;;;;;;18.29;31.63;101837.34;5026360;28;20361;-65
2023/12/03 01:44:20;;;;;;;8.30;5.55;;;;;;;18.28;31.78;101833.03;5026014;28;20351;-65
2023/12/03 01:46:50;;;;;;;7.75;5.28;;;;;;;18.27;31.58;101829.53;5026201;28;20037;-66
2023/12/03 01:49:16;;;;;;;8.45;5.40;;;;;;;18.28;31.99;101836.50;5026171;28;20136;-65
2023/12/03 01:51:42;;;;;;;7.63;5.28;;;;;;;18.26;31.51;101829.63;5025907;28;20108;-64
2023/12/03 01:54:08;;;;;;;7.80;5.43;;;;;;;18.24;31.86;101832.38;5025853;28;20156;-63
2023/12/03 01:56:33;;;;;;;9.13;5.50;;;;;;;18.24;31.64;101831.53;5026246;28;20108;-65
2023/12/03 01:58:58;;;;;;;10.10;6.18;;;;;;;18.24;31.60;101834.16;5025871;28;20037;-64
2023/12/03 02:01:23;;;;;;;7.55;5.60;;;;;;;18.23;31.63;101835.97;5026415;28;20033;-63
2023/12/03 02:03:49;;;;;;;9.98;5.97;;;;;;;18.23;31.78;101845.66;5026061;28;20033;-63
2023/12/03 02:06:15;;;;;;;8.73;5.97;;;;;;;18.20;31.93;101844.09;5026228;28;20026;-64
2023/12/03 02:08:40;;;;;;;9.10;6.13;;;;;;;18.20;31.87;101845.84;5028686;28;20033;-64
2023/12/03 02:11:07;;;;;;;7.88;5.80;;;;;;;18.18;31.61;101840.69;5030250;28;20026;-67
2023/12/03 02:13:34;;;;;;;8.60;6.35;;;;;;;18.18;31.69;101840.69;5030079;28;20037;-64
2023/12/03 02:16:00;;;;;;;8.88;6.05;;;;;;;18.18;31.57;101848.59;5029686;28;20030;-63
2023/12/03 02:18:26;;;;;;;9.38;6.20;;;;;;;18.18;31.60;101856.50;5029912;28;20032;-64
2023/12/03 02:20:53;;;;;;;8.43;5.75;;;;;;;18.16;31.75;101855.78;5029309;28;20371;-64
2023/12/03 02:23:19;;;;;;;9.43;5.95;;;;;;;18.16;31.65;101852.31;5029499;28;20045;-64
2023/12/03 02:25:44;;;;;;;10.93;6.07;;;;;;;18.10;31.68;101846.50;5029697;28;20037;-64
2023/12/03 02:28:10;;;;;;;8.32;6.00;;;;;;;18.11;31.78;101853.44;5029858;28;20036;-64
2023/12/03 02:30:35;;;;;;;10.50;6.30;;;;;;;18.13;31.83;101855.97;5028512;28;20087;-65
2023/12/03 02:33:00;;;;;;;8.55;6.13;;;;;;;18.11;31.54;101855.25;5029318;28;20474;-65
2023/12/03 02:35:26;;;;;;;8.93;6.40;;;;;;;18.08;31.45;101851.00;5029226;28;20109;-64
2023/12/03 02:37:51;;;;;;;8.63;5.90;;;;;;;18.08;31.44;101853.63;5029493;28;20733;-65
2023/12/03 02:40:18;;;;;;;8.30;6.07;;;;;;;18.09;31.94;101849.22;5029582;28;20365;-66
2023/12/03 02:42:43;;;;;;;8.07;6.03;;;;;;;18.09;31.55;101850.06;5029456;28;20100;-66
2023/12/03 02:45:09;;;;;;;8.60;5.37;;;;;;;18.08;31.69;101855.44;5029206;28;20053;-62
2023/12/03 02:47:35;;;;;;;9.70;6.00;;;;;;;18.08;31.65;101863.34;5029111;28;20263;-62
2023/12/03 02:50:01;;;;;;;9.10;5.68;;;;;;;18.07;31.39;101857.25;5029036;28;20036;-66
2023/12/03 02:52:26;;;;;;;9.02;5.88;;;;;;;18.05;31.82;101853.00;5029328;28;20026;-64
2023/12/03 02:54:51;;;;;;;8.73;6.15;;;;;;;18.07;31.40;101859.00;5028211;28;20039;-66
2023/12/03 02:57:17;;;;;;;9.10;6.20;;;;;;;18.05;31.75;101858.28;5028716;28;20030;-62
2023/12/03 02:59:42;;;;;;;9.10;6.10;;;;;;;18.05;31.68;101855.63;5028796;28;20030;-65
2023/12/03 03:02:07;;;;;;;9.25;6.28;;;;;;;18.02;31.81;101848.75;5028784;28;20037;-64
2023/12/03 03:04:32;;;;;;;9.32;6.10;;;;;;;18.03;31.66;101855.72;5028833;28;20068;-64
2023/12/03 03:06:58;;;;;;;9.30;6.00;;;;;;;18.03;31.64;101849.63;5029046;28;20455;-65
2023/12/03 03:09:23;;;;;;;9.00;6.03;;;;;;;18.00;31.81;101847.19;5029304;28;20040;-65
2023/12/03 03:11:48;;;;;;;8.43;6.00;;;;;;;18.02;31.53;101851.38;5029273;28;20037;-66
2023/12/03 03:14:13;;;;;;;8.55;5.60;;;;;;;18.00;31.52;101849.81;5028506;28;20273;-65
2023/12/03 03:16:39;;;;;;;8.48;5.78;;;;;;;18.00;31.74;101849.81;5028736;28;20075;-66
2023/12/03 03:19:05;;;;;;;9.00;6.13;;;;;;;17.99;31.71;101854.25;5028380;28;20163;-65
2023/12/03 03:21:30;;;;;;;8.43;5.78;;;;;;;17.97;31.39;101853.50;5028239;28;20060;-63
2023/12/03 03:23:56;;;;;;;9.02;6.05;;;;;;;17.97;31.50;101852.66;5028319;28;20450;-64
2023/12/03 03:26:21;;;;;;;8.40;5.68;;;;;;;17.96;31.75;101851.81;5028346;28;20116;-64
2023/12/03 03:28:46;;;;;;;8.07;5.38;;;;;;;17.98;31.63;101857.00;5028280;28;20033;-62
2023/12/03 03:31:12;;;;;;;8.90;5.75;;;;;;;17.96;31.46;101851.81;5028112;28;20973;-64
2023/12/03 03:33:37;;;;;;;8.43;5.85;;;;;;;17.95;31.22;101850.13;5028182;28;20057;-62
2023/12/03 03:36:02;;;;;;;9.75;6.18;;;;;;;17.94;31.66;101849.28;5028201;28;20120;-62
2023/12/03 03:38:28;;;;;;;8.90;5.53;;;;;;;17.93;31.63;101852.84;5027938;28;20036;-62
2023/12/03 03:40:53;;;;;;;9.07;6.22;;;;;;;17.92;31.35;101853.78;5028222;28;20022;-65
2023/12/03 03:43:18;;;;;;;9.05;6.18;;;;;;;17.92;31.66;101858.22;5028272;28;20519;-63
2023/12/03 03:45:44;;;;;;;8.40;5.47;;;;;;;17.91;31.38;101853.88;5028352;28;20029;-63
2023/12/03 03:48:09;;;;;;;8.57;5.90;;;;;;;17.90;31.55;101860.97;5028232;28;20518;-63
2023/12/03 03:50:34;;;;;;;8.68;5.70;;;;;;;17.91;31.68;101861.78;5027802;28;20021;-64
2023/12/03 03:52:59;;;;;;;8.35;5.53;;;;;;;17.90;31.26;101868.88;5027782;28;20029;-64
2023/12/03 03:55:25;;;;;;;8.82;5.63;;;;;;;17.90;31.61;101860.13;5027978;28;20029;-62
2023/12/03 03:57:50;;;;;;;8.83;6.00;;;;;;;17.86;31.40;101861.22;5027921;28;20053;-64
2023/12/03 04:00:15;;;;;;;8.25;5.38;;;;;;;17.89;31.36;101869.81;5027642;28;20266;-63
2023/12/03 04:02:41;;;;;;;9.30;6.05;;;;;;;17.88;31.35;101864.63;5028049;28;20104;-64
2023/12/03 04:05:09;;;;;;;9.32;5.78;;;;;;;17.86;31.57;101863.84;5027737;28;20025;-63
2023/12/03 04:07:34;;;;;;;6.60;5.10;;;;;;;17.85;31.35;101870.94;5028004;28;20040;-65
2023/12/03 04:09:59;;;;;;;8.95;6.15;;;;;;;17.86;31.47;101874.41;5027577;28;20030;-65
2023/12/03 04:12:25;;;;;;;8.63;5.90;;;;;;;17.84;31.21;101868.38;5027756;28;20508;-64
2023/12/03 04:14:50;;;;;;;8.50;6.15;;;;;;;17.82;31.28;101865.00;5027125;28;20594;-63
2023/12/03 04:17:16;;;;;;;8.95;5.25;;;;;;;17.83;31.30;101875.47;5027541;28;20034;-65
2023/12/03 04:19:41;;;;;;;8.27;5.60;;;;;;;17.83;31.11;101877.22;5027222;28;20033;-64
2023/12/03 04:22:07;;;;;;;8.75;6.28;;;;;;;17.82;31.32;101883.47;5027258;28;20057;-66
2023/12/03 04:24:32;;;;;;;9.00;5.40;;;;;;;17.82;31.28;101883.47;5027326;28;20092;-63
2023/12/03 04:26:57;;;;;;;7.72;5.30;;;;;;;17.80;31.24;101877.44;5027563;28;20032;-63
2023/12/03 04:29:23;;;;;;;8.43;5.60;;;;;;;17.81;31.32;101873.84;5026638;28;20025;-66
2023/12/03 04:31:49;;;;;;;8.00;5.60;;;;;;;17.80;31.42;101875.66;5026168;28;20802;-64
2023/12/03 04:34:14;;;;;;;7.68;5.35;;;;;;;17.79;31.13;101868.69;5026788;28;20037;-66
2023/12/03 04:36:42;;;;;;;10.25;5.90;;;;;;;17.78;31.22;101874.88;5027218;28;20056;-62
2023/12/03 04:39:08;;;;;;;9.82;6.07;;;;;;;17.79;31.46;101881.03;5027141;28;20044;-65
2023/12/03 04:41:37;;;;;;;8.25;5.35;;;;;;;17.75;31.14;101875.94;5025939;28;20037;-63
2023/12/03 04:44:04;;;;;;;8.30;5.82;;;;;;;17.76;31.29;101884.69;5026582;28;20124;-65
2023/12/03 04:46:30;;;;;;;8.77;6.05;;;;;;;17.75;31.11;101881.22;5026578;28;20501;-63
2023/12/03 04:48:55;;;;;;;8.30;5.80;;;;;;;17.76;31.14;101887.31;5027017;28;20033;-63
2023/12/03 04:51:20;;;;;;;8.65;5.90;;;;;;;17.76;30.98;101882.88;5026819;28;20033;-65
2023/12/03 04:53:45;;;;;;;9.15;5.65;;;;;;;17.76;31.05;101882.88;5027013;28;20032;-65
2023/12/03 04:56:11;;;;;;;7.85;5.90;;;;;;;17.75;31.09;101886.50;5026708;28;20025;-62
2023/12/03 04:58:36;;;;;;;8.23;5.25;;;;;;;17.74;31.25;101882.16;5025423;28;20476;-64
2023/12/03 05:01:02;;;;;;;7.90;5.18;;;;;;;17.75;31.12;101883.84;5026806;28;20017;-65
2023/12/03 05:03:27;;;;;;;8.52;5.28;;;;;;;17.74;30.99;101884.78;5026840;28;20365;-65
2023/12/03 05:05:53;;;;;;;8.23;5.78;;;;;;;17.73;31.28;101888.34;5026700;28;20125;-67
2023/12/03 05:08:18;;;;;;;8.20;5.50;;;;;;;17.74;31.24;101887.44;5027028;28;20053;-63
2023/12/03 05:10:43;;;;;;;8.50;5.73;;;;;;;17.74;31.32;101889.22;5026699;28;20151;-63
2023/12/03 05:13:08;;;;;;;9.38;5.75;;;;;;;17.75;30.86;101890.91;5026424;28;20342;-63
2023/12/03 05:15:34;;;;;;;8.98;5.38;;;;;;;17.75;31.18;101898.81;5026363;28;20454;-65
2023/12/03 05:17:59;;;;;;;9.23;5.20;;;;;;;17.77;30.77;101897.78;5026475;28;20025;-65
2023/12/03 05:20:24;;;;;;;8.85;6.07;;;;;;;17.74;30.98;101897.97;5026137;28;20033;-64
2023/12/03 05:22:51;;;;;;;9.18;5.88;;;;;;;17.75;30.86;101898.81;5026296;28;20366;-65
2023/12/03 05:25:18;;;;;;;9.30;5.93;;;;;;;17.75;31.16;101901.44;5026116;28;20046;-66
2023/12/03 05:27:43;;;;;;;9.68;5.85;;;;;;;17.74;30.82;101897.97;5026334;28;20045;-67
2023/12/03 05:30:09;;;;;;;8.63;5.72;;;;;;;17.75;31.27;101901.44;5025694;28;20060;-64
2023/12/03 05:32:34;;;;;;;7.55;4.88;;;;;;;17.72;31.53;101899.00;5026526;28;20096;-64
2023/12/03 05:34:59;;;;;;;7.15;4.82;;;;;;;17.79;31.93;101899.47;5026064;28;20021;-64
2023/12/03 05:37:28;;;;;;;7.97;5.38;;;;;;;17.81;32.05;101897.59;5026302;28;20080;-63
2023/12/03 05:39:54;;;;;;;7.25;4.57;;;;;;;17.85;32.23;101899.94;5026125;28;20037;-65
2023/12/03 05:42:19;;;;;;;6.85;4.10;;;;;;;17.87;32.28;101894.56;5027312;28;20480;-65
2023/12/03 05:44:45;;;;;;;5.72;3.83;;;;;;;17.94;32.02;101903.78;5030408;28;20041;-63
2023/12/03 05:47:11;;;;;;;7.30;3.67;;;;;;;17.98;32.35;101904.47;5030279;28;20362;-65
2023/12/03 05:49:38;;;;;;;6.47;3.70;;;;;;;18.03;31.95;101905.00;5030007;28;20060;-65
2023/12/03 05:52:04;;;;;;;5.82;3.60;;;;;;;18.06;31.83;101910.94;5030129;28;20397;-66
2023/12/03 05:54:29;;;;;;;5.82;3.83;;;;;;;18.09;31.87;101904.63;5030178;28;20841;-63
2023/12/03 05:56:54;;;;;;;6.43;3.97;;;;;;;18.13;31.92;101906.09;5028990;28;20481;-66
2023/12/03 05:59:22;;;;;;;6.35;4.05;;;;;;;18.15;31.70;101917.44;5029923;28;20033;-62
2023/12/03 06:01:47;;;;;;;5.50;3.65;;;;;;;18.16;32.09;101911.19;5030034;28;20447;-65
2023/12/03 06:04:13;;;;;;;5.57;3.40;;;;;;;18.19;31.68;101915.44;5030140;28;20079;-66
2023/12/03 06:06:38;;;;;;;6.40;3.73;;;;;;;18.23;31.93;101914.25;5028974;28;20064;-63
2023/12/03 06:09:09;;;;;;;6.82;3.72;;;;;;;18.25;31.99;101915.88;5030204;28;20261;-66
2023/12/03 06:11:35;;;;;;;6.57;3.85;;;;;;;18.25;32.14;101912.41;5029726;28;20021;-65
2023/12/03 06:14:04;;;;;;;6.50;3.95;;;;;;;18.29;31.69;101917.38;5029995;28;20098;-66
2023/12/03 06:16:30;;;;;;;6.35;3.85;;;;;;;18.30;32.00;101916.41;5029535;28;20033;-66
2023/12/03 06:18:55;;;;;;;6.43;3.90;;;;;;;18.29;31.72;101917.38;5028974;28;20038;-65
2023/12/03 06:21:22;;;;;;;6.07;3.60;;;;;;;18.32;31.86;101924.22;5029368;28;20041;-65
2023/12/03 06:23:47;;;;;;;6.35;3.72;;;;;;;18.32;32.11;101929.50;5029577;28;20037;-66
2023/12/03 06:26:13;;;;;;;7.43;4.13;;;;;;;18.34;31.85;101937.31;5029472;28;20461;-64
2023/12/03 06:28:38;;;;;;;5.70;3.53;;;;;;;18.33;32.03;101928.56;5029426;28;20034;-63
2023/12/03 06:31:07;;;;;;;5.95;3.47;;;;;;;18.36;32.11;101928.38;5028251;28;20089;-66
2023/12/03 06:33:33;;;;;;;5.70;3.70;;;;;;;18.36;31.84;101923.09;5029624;28;20049;-64
2023/12/03 06:35:58;;;;;;;5.93;3.50;;;;;;;18.34;31.82;101919.72;5028513;28;20042;-66
2023/12/03 06:38:23;;;;;;;6.32;4.22;;;;;;;18.40;31.88;101923.72;5029411;28;20037;-64
2023/12/03 06:40:49;;;;;;;6.50;3.70;;;;;;;18.39;31.86;101914.09;5029513;28;20029;-64
2023/12/03 06:43:15;;;;;;;6.00;3.70;;;;;;;18.37;31.74;101911.56;5029251;28;20526;-66
2023/12/03 06:45:40;;;;;;;5.57;3.38;;;;;;;18.39;31.55;101912.34;5029149;28;20017;-65
2023/12/03 06:48:05;;;;;;;8.43;3.30;;;;;;;18.38;31.69;101915.06;5029114;28;20036;-65
2023/12/03 06:50:31;;;;;;;5.80;3.33;;;;;;;18.40;31.85;101916.66;5028902;28;20048;-65
2023/12/03 06:52:56;;;;;;;6.13;3.70;;;;;;;18.43;31.80;101915.63;5028950;28;20508;-65
2023/12/03 06:55:22;;;;;;;6.63;3.97;;;;;;;18.45;32.30;101917.22;5028751;28;20112;-65
2023/12/03 06:57:47;;;;;;;5.53;3.22;;;;;;;18.44;31.87;101904.13;5027908;28;20033;-66
2023/12/03 07:00:13;;;;;;;6.03;3.45;;;;;;;18.44;31.84;101910.22;5028994;28;20033;-66
2023/12/03 07:02:38;;;;;;;5.78;3.30;;;;;;;18.44;31.65;101910.22;5029030;28;20071;-66
2023/12/03 07:05:04;;;;;;;5.22;3.10;;;;;;;18.47;31.71;101912.69;5028856;28;20041;-67
2023/12/03 07:07:30;;;;;;;6.03;3.65;;;;;;;18.47;31.85;101911.84;5028892;28;20033;-66
2023/12/03 07:09:55;;;;;;;5.82;3.45;;;;;;;18.49;32.13;101916.06;5028918;28;20029;-66
2023/12/03 07:12:21;;;;;;;5.72;3.35;;;;;;;18.50;31.89;101919.56;5027426;28;20061;-64
2023/12/03 07:14:46;;;;;;;5.80;3.47;;;;;;;18.51;31.70;101920.41;5028864;28;20033;-64
2023/12/03 07:17:11;;;;;;;5.70;3.40;;;;;;;18.51;31.77;101920.41;5028869;28;20117;-64
2023/12/03 07:19:41;;;;;;;5.88;3.15;;;;;;;18.50;31.51;101924.84;5025443;28;20033;-67
2023/12/03 07:22:06;;;;;;;5.70;3.33;;;;;;;18.49;31.34;101923.97;5026414;28;20060;-67
2023/12/03 07:24:32;;;;;;;5.63;3.58;;;;;;;18.51;31.60;101929.16;5028314;28;20068;-63
2023/12/03 07:26:57;;;;;;;5.40;3.50;;;;;;;18.54;31.50;101931.59;5028568;28;20040;-66
2023/12/03 07:29:22;;;;;;;6.00;3.17;;;;;;;18.54;31.68;101931.59;5027442;28;20040;-64
2023/12/03 07:31:48;;;;;;;6.63;3.53;;;;;;;18.54;31.54;101931.59;5026634;28;20316;-63
2023/12/03 07:34:13;;;;;;;4.85;2.85;;;;;;;18.55;31.60;101941.22;5028779;28;20029;-65
2023/12/03 07:36:38;;;;;;;5.43;3.30;;;;;;;18.56;31.74;101934.13;5028472;28;20025;-66
2023/12/03 07:39:04;;;;;;;5.68;3.47;;;;;;;18.55;31.62;101935.94;5028144;28;20076;-66
2023/12/03 07:41:30;;;;;;;5.63;3.35;;;;;;;18.58;31.57;101948.94;5027628;28;20121;-66
2023/12/03 07:43:56;;;;;;;6.60;3.63;;;;;;;18.57;31.79;101938.47;5010263;28;20470;-64
2023/12/03 07:46:21;;;;;;;6.28;3.20;;;;;;;18.57;31.72;101946.41;5028152;28;20052;-63
2023/12/03 07:48:46;;;;;;;6.35;3.65;;;;;;;18.56;31.65;101940.25;5027179;28;20117;-66
2023/12/03 07:51:12;;;;;;;6.18;3.17;;;;;;;18.55;31.47;101941.22;5028000;28;20083;-64
2023/12/03 07:53:39;;;;;;;6.38;3.92;;;;;;;18.53;31.67;101934.34;5027735;28;20041;-66
2023/12/03 07:56:05;;;;;;;7.30;3.75;;;;;;;18.54;31.69;101936.88;5027880;28;20381;-65
2023/12/03 07:58:30;;;;;;;6.10;3.42;;;;;;;18.55;31.62;101938.56;5026957;28;20030;-65
2023/12/03 08:00:55;;;;;;;5.95;3.35;;;;;;;18.57;31.61;101941.13;5027595;28;20120;-63
2023/12/03 08:03:21;;;;;;;5.22;3.33;;;;;;;18.58;31.32;101943.66;5027147;28;20120;-64
2023/12/03 08:05:46;;;;;;;5.93;3.42;;;;;;;18.58;31.41;101938.38;5025328;28;20048;-65
2023/12/03 08:08:11;;;;;;;5.75;3.30;;;;;;;18.57;31.39;101941.94;5027553;28;20033;-65
2023/12/03 08:10:37;;;;;;;5.13;3.08;;;;;;;18.57;31.18;101949.03;5027399;28;20026;-65
2023/12/03 08:13:02;;;;;;;6.00;3.58;;;;;;;18.58;31.24;101954.22;5027586;28;20038;-64
2023/12/03 08:15:27;;;;;;;6.15;3.72;;;;;;;18.59;31.13;101953.25;5027261;28;20022;-64
2023/12/03 08:17:52;;;;;;;6.30;3.67;;;;;;;18.59;31.56;101955.06;5027036;28;20378;-64
2023/12/03 08:20:18;;;;;;;5.82;3.17;;;;;;;18.59;31.52;101960.34;5027499;28;20025;-61
2023/12/03 08:22:43;;;;;;;5.65;3.38;;;;;;;18.61;31.26;101950.50;5008982;28;20076;-64
2023/12/03 08:25:09;;;;;;;6.03;3.65;;;;;;;18.61;31.67;101961.94;5026853;28;20389;-65
2023/12/03 08:27:34;;;;;;;5.85;3.15;;;;;;;18.62;31.69;101952.22;5026975;28;20071;-65
2023/12/03 08:29:59;;;;;;;6.75;4.07;;;;;;;18.63;31.66;101959.19;5026734;28;20025;-66
2023/12/03 08:32:24;;;;;;;6.38;3.78;;;;;;;18.66;31.63;101965.13;5026829;28;20048;-63
2023/12/03 08:34:50;;;;;;;7.38;3.85;;;;;;;18.68;32.07;101959.72;5026054;28;20033;-65
2023/12/03 08:37:15;;;;;;;;;;;;;;;18.70;32.29;101968.38;5026504;28;20124;-66
2023/12/03 08:40:09;;;;;;;6.20;3.10;;;;;;;18.79;32.59;101972.22;5047175;27;20115;-70
2023/12/03 08:42:34;;;;;;;5.50;3.10;;;;;;;18.75;32.32;101971.56;5003936;28;20033;-68
2023/12/03 08:45:00;;;;;;;7.15;2.95;;;;;;;18.74;32.24;101967.25;5002248;28;20306;-69
2023/12/03 08:47:25;;;;;;;6.30;2.90;;;;;;;18.76;31.90;101972.44;4975669;28;20044;-66
2023/12/03 08:49:51;;;;;;;9.15;3.88;;;;;;;18.81;32.02;101981.72;4999058;28;20153;-69
2023/12/03 08:52:16;;;;;;;7.05;4.15;;;;;;;18.89;31.21;101983.06;5000142;28;20061;-69
2023/12/03 08:54:41;;;;;;;6.50;3.40;;;;;;;18.91;31.67;101976.69;4999994;28;19921;-70
2023/12/03 08:57:07;;;;;;;7.28;3.67;;;;;;;18.83;31.87;101982.50;4998701;28;20369;-69
2023/12/03 08:59:32;;;;;;;4.78;2.72;;;;;;;18.82;32.71;101982.59;4999617;28;20088;-67
2023/12/03 09:01:58;;;;;;;5.20;2.60;;;;;;;18.82;32.45;101978.16;5013830;28;20026;-69
2023/12/03 09:04:23;;;;;;;6.38;2.65;;;;;;;18.83;32.56;101978.97;4999439;28;19952;-68
2023/12/03 09:06:48;;;;;;;6.18;2.83;;;;;;;18.85;32.28;101985.91;4999567;28;20117;-70
2023/12/03 09:09:14;;;;;;;7.05;2.78;;;;;;;18.87;32.72;101987.56;4998979;28;20426;-69
2023/12/03 09:11:43;;;;;;;5.97;2.80;;;;;;;18.88;32.50;101986.63;4999405;28;20080;-69
2023/12/03 09:14:08;;;;;;;7.15;3.38;;;;;;;18.91;32.54;101991.72;4999291;28;20061;-68
2023/12/03 09:16:34;;;;;;;;;;;;;;;18.91;32.53;101991.72;4999765;28;20546;-67
2023/12/03 09:19:00;;;;;;;;;;;;;;;18.95;32.03;101990.56;4997617;28;19940;-66
2023/12/03 09:21:25;;;;;;;;;;;;;;;19.03;31.49;101996.19;4999536;28;19933;-67
2023/12/03 09:23:50;;;;;;;;;;;;;;;19.09;31.18;101984.34;4999068;28;20041;-67
2023/12/03 09:26:16;;;;;;;;;;;;;;;19.08;30.97;101990.59;4998602;28;19929;-68
2023/12/03 09:28:41;;;;;;;;;;;;;;;19.05;31.36;101989.00;4999531;28;20057;-68
2023/12/03 09:31:06;;;;;;;;;;;;;;;19.05;31.19;101994.28;4998659;28;20255;-67
2023/12/03 09:33:31;;;;;;;6.05;3.78;;;;;;;19.07;31.51;101988.91;4998456;28;20376;-66
2023/12/03 09:35:57;;;;;;;6.72;4.20;;;;;;;19.11;31.46;101993.88;4998596;28;20034;-68
2023/12/03 09:38:23;;;;;;;6.53;3.80;;;;;;;19.15;31.14;101983.94;5012629;28;20085;-68
2023/12/03 09:40:49;;;;;;;7.30;3.95;;;;;;;19.15;31.22;101982.16;4996999;28;20851;-67
2023/12/03 09:43:20;;;;;;;8.73;4.70;;;;;;;19.20;30.87;101982.69;4995467;28;20034;-64
2023/12/03 09:45:49;;;;;;;6.88;4.28;;;;;;;19.31;30.76;101979.31;4998686;28;20489;-68
2023/12/03 09:48:19;;;;;;;6.55;4.00;;;;;;;19.19;31.21;101975.69;4997459;28;20168;-67
2023/12/03 09:50:45;;;;;;;6.03;3.67;;;;;;;19.15;31.00;101973.38;4989197;28;20030;-65
2023/12/03 09:53:11;;;;;;;6.15;3.70;;;;;;;19.18;31.30;101974.03;4984987;28;20061;-66
2023/12/03 09:55:41;;;;;;;6.53;3.60;;;;;;;19.21;31.32;101975.59;4986057;28;20122;-66
2023/12/03 09:58:10;;;;;;;8.02;4.20;;;;;;;19.31;30.74;101973.16;4985165;28;20046;-67
2023/12/03 10:00:37;;;;;;;8.63;4.32;;;;;;;19.34;30.53;101976.47;4984390;28;20072;-67
2023/12/03 10:03:04;;;;;;;;;;;;;;;19.40;30.61;101976.00;4985547;28;20042;-68
2023/12/03 10:05:29;;;;;;;;;;;;;;;19.41;30.54;101976.88;4985561;28;20350;-66
2023/12/03 10:07:55;;;;;;;6.23;4.03;;;;;;;19.36;30.72;101965.78;4984756;28;19920;-66
2023/12/03 10:10:24;;;;;;;5.95;3.70;;;;;;;19.35;30.70;101964.91;4984902;28;20018;-65
2023/12/03 10:12:52;;;;;;;6.10;3.63;;;;;;;19.35;30.87;101964.91;4984632;28;20034;-65
2023/12/03 10:15:17;;;;;;;5.82;3.85;;;;;;;19.37;30.72;101965.66;4984437;28;20058;-65
2023/12/03 10:17:43;;;;;;;6.72;3.70;;;;;;;19.35;30.70;101958.81;4984875;28;20038;-65
2023/12/03 10:20:18;;;;;;;5.70;3.13;;;;;;;19.33;31.14;101961.53;4985787;28;20117;-64
2023/12/03 10:22:43;;;;;;;5.47;3.38;;;;;;;19.42;30.58;101949.47;4984923;28;20121;-66
2023/12/03 10:25:09;;;;;;;6.47;3.67;;;;;;;19.38;30.87;101961.22;4984250;28;20537;-67
2023/12/03 10:27:34;;;;;;;7.00;4.30;;;;;;;19.28;30.45;101954.88;4984046;28;20635;-66
2023/12/03 10:30:00;;;;;;;;;;;;;;;19.30;30.82;101943.25;4984209;28;20042;-62
2023/12/03 10:32:26;;;;;;;;;;;;;;;19.20;30.99;101958.91;4985833;28;19921;-61
2023/12/03 10:34:53;;;;;;;;;;;;;;;19.16;30.80;101948.66;4984748;28;19925;-61
2023/12/03 10:37:18;;;;;;;;;;;;;;;19.14;31.07;101954.03;4959628;28;19925;-66
2023/12/03 10:39:44;;;;;;;;;;;;;;;19.07;31.17;101951.91;5010000;28;19921;-67
2023/12/03 10:42:09;;;;;;;;;;;;;;;18.99;30.97;101937.44;5011985;28;19921;-67
2023/12/03 10:44:37;;;;;;;;;;;;;;;18.95;31.47;101941.22;5013306;28;19920;-67
2023/12/03 10:47:02;;;;;;;;;;;;;;;18.92;31.43;101930.03;5008504;28;19972;-63
2023/12/03 10:49:28;;;;;;;;;;;;;;;18.90;31.40;101934.53;5011848;28;19959;-63
2023/12/03 10:51:54;;;;;;;;;;;;;;;18.90;31.29;101934.53;5011237;28;20306;-67
2023/12/03 10:54:19;;;;;;;;;;;;;;;18.89;31.29;101930.22;5003033;28;19921;-65
2023/12/03 10:56:49;;;;;;;;;;;;;;;18.88;31.38;101929.38;5012940;28;19913;-66
2023/12/03 10:59:15;;;;;;;;;;;;;;;18.88;31.46;101924.06;5011655;28;20004;-67
2023/12/03 11:01:47;;;;;;;;;;;;;;;18.90;31.78;101929.25;5011472;28;19966;-66
2023/12/03 11:04:31;;;;;;;;;;;;;;;18.90;31.70;101916.91;5011205;28;19967;-67
2023/12/03 11:06:58;;;;;;;;;;;;;;;18.92;31.53;101911.53;5012717;28;19975;-65
2023/12/03 11:09:24;;;;;;;;;;;;;;;18.92;31.84;101916.81;5012265;28;19913;-66
2023/12/03 11:11:50;;;;;;;;;;;;;;;18.92;31.90;101908.91;5012265;28;19967;-67
2023/12/03 11:14:15;;;;;;;;;;;;;;;18.92;31.80;101908.91;5012225;28;19921;-66
2023/12/03 11:16:51;;;;;;;;;;;;;;;18.93;31.98;101900.00;5010429;28;19921;-64
2023/12/03 11:19:19;;;;;;;;;;;;;;;18.93;32.25;101886.78;5011269;28;19944;-65
2023/12/03 11:21:52;;;;;;;;;;;;;;;18.92;32.22;101887.75;5011522;28;19917;-66
2023/12/03 11:24:26;;;;;;;;;;;;;;;18.91;31.93;101884.25;5010880;28;19917;-66
2023/12/03 11:26:51;;;;;;;;;;;;;;;18.91;31.93;101888.69;5013576;28;19926;-67